createdAt,value
2022-07-28T03:47:57.719Z,1.47
2022-07-28T03:50:28.078Z,1.53
2022-07-28T03:52:59.768Z,1.43
2022-07-28T03:55:32.016Z,2.10
2022-07-28T03:58:01.491Z,2.20
2022-07-28T04:00:30.004Z,1.90
2022-07-28T04:02:58.402Z,1.50
2022-07-28T04:05:26.816Z,1.30
2022-07-28T04:07:55.180Z,1.10
2022-07-28T04:10:25.002Z,1.43
2022-07-28T04:12:56.679Z,1.40
2022-07-28T04:15:27.118Z,1.43
2022-07-28T04:17:56.641Z,1.47
2022-07-28T04:20:26.913Z,1.47
2022-07-28T04:22:56.742Z,1.40
2022-07-28T04:25:28.334Z,1.43
2022-07-28T04:27:57.060Z,1.57
2022-07-28T04:30:27.914Z,1.40
2022-07-28T04:33:04.060Z,1.60
2022-07-28T04:35:36.322Z,1.40
2022-07-28T04:38:04.861Z,1.50
2022-07-28T04:40:34.955Z,1.40
2022-07-28T04:43:03.986Z,1.40
2022-07-28T04:45:32.579Z,1.50
2022-07-28T04:48:01.039Z,1.47
2022-07-28T04:50:29.495Z,1.40
2022-07-28T04:53:01.049Z,1.23
2022-07-28T04:55:29.622Z,1.43
2022-07-28T04:57:59.556Z,1.27
2022-07-28T05:00:28.057Z,1.30
2022-07-28T05:02:58.490Z,1.67
2022-07-28T05:05:27.355Z,1.60
2022-07-28T05:07:56.034Z,1.47
2022-07-28T05:10:24.634Z,1.40
2022-07-28T05:12:54.737Z,1.43
2022-07-28T05:15:27.312Z,1.50
2022-07-28T05:17:55.881Z,1.30
2022-07-28T05:20:24.290Z,1.37
2022-07-28T05:22:53.853Z,1.80
2022-07-28T05:25:23.672Z,1.60
2022-07-28T05:27:52.884Z,1.37
2022-07-28T05:30:21.983Z,1.60
2022-07-28T05:32:53.839Z,1.50
2022-07-28T05:35:25.392Z,1.50
2022-07-28T05:37:53.844Z,1.53
2022-07-28T05:40:23.945Z,1.57
2022-07-28T05:42:52.745Z,1.40
2022-07-28T05:45:21.227Z,1.27
2022-07-28T05:47:53.181Z,1.53
2022-07-28T05:50:24.221Z,1.80
2022-07-28T05:52:52.983Z,1.60
2022-07-28T05:55:21.854Z,1.30
2022-07-28T05:57:51.133Z,1.53
2022-07-28T06:00:21.891Z,1.80
2022-07-28T06:02:54.040Z,1.37
2022-07-28T06:05:24.419Z,1.67
2022-07-28T06:07:53.394Z,1.50
2022-07-28T06:10:23.505Z,1.30
2022-07-28T06:12:54.813Z,1.50
2022-07-28T06:15:25.905Z,1.50
2022-07-28T06:17:57.013Z,1.50
2022-07-28T06:20:27.967Z,1.60
2022-07-28T06:22:57.864Z,1.33
2022-07-28T06:25:28.193Z,1.50
2022-07-28T06:27:59.230Z,1.30
2022-07-28T06:30:28.789Z,1.63
2022-07-28T06:33:05.674Z,1.50
2022-07-28T06:35:47.713Z,1.30
2022-07-28T06:38:20.891Z,1.37
2022-07-28T06:40:49.472Z,1.40
2022-07-28T06:43:17.926Z,1.43
2022-07-28T06:45:46.653Z,1.30
2022-07-28T06:48:20.227Z,1.27
2022-07-28T06:50:48.757Z,1.40
2022-07-28T06:53:18.617Z,1.40
2022-07-28T06:55:49.997Z,1.50
2022-07-28T06:58:18.974Z,1.43
2022-07-28T07:00:47.708Z,1.50
2022-07-28T07:03:19.039Z,1.70
2022-07-28T07:05:51.539Z,1.53
2022-07-28T07:08:21.748Z,1.60
2022-07-28T07:10:50.708Z,1.97
2022-07-28T07:13:19.383Z,1.60
2022-07-28T07:15:48.185Z,2.00
2022-07-28T07:18:18.284Z,1.77
2022-07-28T07:20:53.470Z,1.60
2022-07-28T07:23:25.300Z,1.60
2022-07-28T07:25:57.472Z,2.07
2022-07-28T07:28:34.576Z,1.30
2022-07-28T07:31:17.783Z,1.77
2022-07-28T07:34:01.929Z,1.70
2022-07-28T07:36:34.061Z,1.80
2022-07-28T07:39:02.868Z,1.63
2022-07-28T07:41:34.955Z,1.90
2022-07-28T07:44:09.942Z,1.80
2022-07-28T07:47:02.317Z,1.60
2022-07-28T07:49:57.584Z,1.50
2022-07-28T07:52:27.043Z,1.50
2022-07-28T07:54:55.311Z,1.80
2022-07-28T07:57:23.695Z,1.80
2022-07-28T07:59:52.354Z,1.90
2022-07-28T08:02:20.872Z,1.70
2022-07-28T08:04:49.369Z,1.60
2022-07-28T08:07:21.997Z,2.17
2022-07-28T08:09:50.747Z,2.07
2022-07-28T08:12:24.962Z,2.30
2022-07-28T08:14:54.014Z,2.57
2022-07-28T08:17:25.898Z,2.07
2022-07-28T08:19:54.682Z,2.10
2022-07-28T08:22:24.723Z,2.00
2022-07-28T08:24:53.409Z,2.00
2022-07-28T08:27:21.878Z,2.07
2022-07-28T08:29:50.399Z,2.00
2022-07-28T08:32:29.453Z,2.00
2022-07-28T08:38:23.754Z,2.40
2022-07-28T08:42:28.100Z,2.37
2022-07-28T09:45:30.532Z,2.73
2022-07-28T11:31:49.688Z,3.57
2022-07-28T11:38:20.267Z,3.10
2022-07-28T12:05:34.313Z,5.60
2022-07-28T12:17:40.723Z,2.65
2022-07-28T12:26:31.333Z,2.65
2022-07-28T12:30:56.248Z,2.80
2022-07-28T12:43:04.205Z,3.22
2022-07-28T12:46:07.595Z,2.50
2022-07-28T12:49:41.435Z,3.40
2022-07-28T12:52:35.371Z,2.78
2022-07-28T12:55:35.028Z,2.70
2022-07-28T12:58:40.405Z,2.83
2022-07-28T13:01:29.157Z,2.88
2022-07-28T13:03:58.552Z,2.92
2022-07-28T13:06:31.734Z,2.50
2022-07-28T13:09:00.680Z,2.83
2022-07-28T13:11:45.857Z,2.70
2022-07-28T13:14:16.461Z,2.72
2022-07-28T13:17:00.791Z,2.80
2022-07-28T13:20:26.069Z,2.45
2022-07-28T13:23:05.529Z,2.95
2022-07-28T13:34:03.033Z,2.80
2022-07-28T13:36:45.265Z,2.87
2022-07-28T13:48:58.103Z,3.00
2022-07-28T13:58:41.778Z,2.65
2022-07-28T14:01:23.415Z,2.70
2022-07-28T14:07:15.258Z,2.60
2022-07-28T14:09:56.885Z,2.75
2022-07-28T14:12:48.415Z,2.80
2022-07-28T14:15:48.102Z,2.50
2022-07-28T14:18:36.605Z,3.45
2022-07-28T14:21:52.272Z,2.60
2022-07-28T14:24:47.869Z,2.63
2022-07-28T14:27:28.902Z,2.60
2022-07-28T14:34:35.726Z,2.90
2022-07-28T14:37:17.292Z,2.50
2022-07-28T14:40:12.104Z,2.47
2022-07-28T14:42:59.487Z,3.05
2022-07-28T14:46:13.601Z,2.58
2022-07-28T14:49:18.227Z,2.90
2022-07-28T14:52:25.818Z,2.40
2022-07-28T14:58:49.345Z,2.63
2022-07-28T15:01:52.785Z,2.38
2022-07-28T15:05:02.951Z,2.58
2022-07-28T15:08:01.364Z,2.47
2022-07-28T15:11:58.198Z,2.63
2022-07-28T15:14:41.217Z,2.92
2022-07-28T15:25:49.670Z,2.55
2022-07-28T15:28:59.925Z,2.65
2022-07-28T15:40:02.262Z,2.33
2022-07-28T15:42:48.380Z,2.50
2022-07-28T15:46:03.317Z,3.08
2022-07-28T15:49:08.814Z,2.90
2022-07-28T15:52:20.764Z,2.73
2022-07-28T15:56:01.011Z,2.42
2022-07-28T15:59:05.292Z,2.55
2022-07-28T16:01:34.407Z,2.72
2022-07-28T16:04:12.544Z,2.50
2022-07-28T16:07:03.757Z,2.50
2022-07-28T16:09:45.951Z,2.60
2022-07-28T16:12:32.293Z,2.70
2022-07-28T16:15:15.080Z,2.37
2022-07-28T16:18:01.580Z,2.50
2022-07-28T16:20:39.065Z,2.80
2022-07-28T16:27:28.253Z,2.73
2022-07-28T16:30:02.020Z,2.43
2022-07-28T16:32:33.387Z,2.80
2022-07-28T16:35:16.842Z,2.63
2022-07-28T16:38:23.563Z,2.67
2022-07-28T16:41:12.651Z,2.40
2022-07-28T16:43:55.859Z,2.40
2022-07-28T16:46:32.637Z,2.70
2022-07-28T16:49:09.099Z,2.60
2022-07-28T16:51:44.717Z,2.57
2022-07-28T16:54:31.823Z,2.37
2022-07-28T16:57:25.275Z,2.47
2022-07-28T17:00:01.137Z,2.50
2022-07-28T17:03:10.999Z,2.90
2022-07-28T17:05:44.930Z,2.90
2022-07-28T17:08:24.186Z,2.50
2022-07-28T17:10:58.599Z,2.63
2022-07-28T17:13:42.141Z,2.80
2022-07-28T17:16:25.547Z,2.43
2022-07-28T17:20:16.755Z,2.33
2022-07-28T17:22:20.270Z,2.47
2022-07-28T17:25:06.898Z,2.23
2022-07-28T17:28:21.143Z,2.60
2022-07-28T17:31:06.174Z,3.37
2022-07-28T17:35:02.969Z,3.00
2022-07-28T17:38:33.390Z,2.67
2022-07-28T17:41:34.669Z,2.67
2022-07-28T17:44:36.933Z,2.90
2022-07-28T17:47:16.482Z,2.73
2022-07-28T17:50:05.601Z,2.60
2022-07-28T17:52:36.435Z,2.40
2022-07-28T17:56:00.476Z,2.60
2022-07-28T17:58:39.241Z,2.83
2022-07-28T18:01:45.229Z,2.80
2022-07-28T18:04:22.680Z,2.63
2022-07-28T18:07:18.313Z,2.60
2022-07-28T18:10:05.173Z,2.47
2022-07-28T18:12:38.987Z,2.60
2022-07-28T18:15:21.358Z,2.67
2022-07-28T18:18:04.356Z,2.70
2022-07-28T18:20:38.186Z,2.37
2022-07-28T18:23:12.770Z,2.93
2022-07-28T18:26:01.433Z,2.75
2022-07-28T18:32:19.160Z,2.70
2022-07-28T20:34:53.921Z,2.60
2022-07-28T20:38:44.285Z,2.83
2022-07-28T20:41:41.194Z,2.80
2022-07-28T20:44:28.175Z,2.60
2022-07-28T20:47:00.955Z,2.53
2022-07-28T20:49:32.780Z,2.57
2022-07-28T20:52:09.500Z,2.90
2022-07-28T20:54:38.653Z,2.67
2022-07-28T20:57:12.207Z,2.70
2022-07-28T20:59:43.696Z,3.07
2022-07-28T21:02:25.623Z,2.60
2022-07-28T21:04:56.871Z,2.33
2022-07-28T21:08:05.379Z,2.70
2022-07-28T21:10:28.956Z,2.83
2022-07-28T21:13:03.395Z,2.70
2022-07-28T21:15:36.030Z,2.65
2022-07-28T21:18:13.443Z,2.87
2022-07-28T21:21:32.935Z,2.83
2022-07-28T21:25:06.350Z,2.83
2022-07-28T21:28:54.864Z,2.53
2022-07-28T21:32:29.584Z,2.57
2022-07-28T21:35:25.668Z,2.40
2022-07-28T21:38:10.807Z,2.45
2022-07-28T21:41:02.515Z,2.50
2022-07-28T21:43:42.435Z,2.87
2022-07-28T21:47:24.081Z,2.97
2022-07-28T21:55:06.359Z,2.80
2022-07-28T22:01:23.918Z,2.77
2022-07-28T22:04:06.988Z,2.50
2022-07-28T22:06:41.168Z,2.73
2022-07-28T22:09:23.923Z,2.63
2022-07-28T22:11:57.082Z,2.80
2022-07-28T22:14:32.234Z,3.00
2022-07-28T22:19:32.587Z,2.80
2022-07-28T22:34:31.911Z,3.30
2022-07-28T22:37:13.097Z,2.90
2022-07-28T22:39:43.234Z,2.90
2022-07-28T22:42:12.637Z,2.70
2022-07-28T22:44:41.344Z,2.70
2022-07-28T22:47:09.617Z,3.00
2022-07-28T22:49:38.180Z,2.90
2022-07-28T22:52:06.934Z,2.80
2022-07-28T22:54:38.868Z,3.00
2022-07-28T22:57:08.593Z,2.53
2022-07-28T22:59:38.571Z,2.67
2022-07-28T23:02:09.714Z,3.03
2022-07-28T23:04:42.022Z,2.70
2022-07-28T23:07:13.494Z,2.70
2022-07-28T23:09:43.868Z,2.60
2022-07-28T23:12:14.920Z,3.30
2022-07-28T23:14:43.164Z,2.87
2022-07-28T23:17:11.563Z,2.90
2022-07-28T23:19:39.808Z,3.20
2022-07-28T23:22:08.044Z,2.80
2022-07-28T23:24:36.211Z,3.10
2022-07-28T23:27:04.951Z,2.77
2022-07-28T23:29:34.518Z,2.87
2022-07-28T23:32:02.901Z,2.83
2022-07-28T23:34:34.013Z,3.03
2022-07-28T23:37:02.309Z,3.20
2022-07-28T23:39:30.958Z,3.10
2022-07-28T23:41:59.385Z,3.10
2022-07-28T23:44:27.634Z,3.40
2022-07-28T23:46:57.449Z,3.30
2022-07-28T23:49:25.783Z,3.03
2022-07-28T23:51:54.112Z,2.90
2022-07-28T23:54:22.479Z,3.07
2022-07-28T23:56:55.199Z,3.50
2022-07-28T23:59:23.702Z,3.00
